sensor_id;sensor_type;location;lat;lon;timestamp;temperature;humidity
3262;DHT22;1643;47.746;9.000;2023-05-18T00:00:07;11.20;99.40
3262;DHT22;1643;47.746;9.000;2023-05-18T00:02:36;11.10;99.40
3262;DHT22;1643;47.746;9.000;2023-05-18T00:05:02;11.00;99.40
3262;DHT22;1643;47.746;9.000;2023-05-18T00:07:29;11.00;99.50
3262;DHT22;1643;47.746;9.000;2023-05-18T00:09:58;11.00;99.50
3262;DHT22;1643;47.746;9.000;2023-05-18T00:12:24;10.90;99.60
3262;DHT22;1643;47.746;9.000;2023-05-18T00:14:49;10.90;99.60
3262;DHT22;1643;47.746;9.000;2023-05-18T00:17:15;10.90;99.60
3262;DHT22;1643;47.746;9.000;2023-05-18T00:19:41;10.90;99.60
3262;DHT22;1643;47.746;9.000;2023-05-18T00:22:07;10.80;99.70
3262;DHT22;1643;47.746;9.000;2023-05-18T00:24:32;10.80;99.70
3262;DHT22;1643;47.746;9.000;2023-05-18T00:26:58;10.90;99.80
3262;DHT22;1643;47.746;9.000;2023-05-18T00:29:23;10.90;99.80
3262;DHT22;1643;47.746;9.000;2023-05-18T00:31:49;10.80;99.80
3262;DHT22;1643;47.746;9.000;2023-05-18T00:34:15;10.80;99.90
3262;DHT22;1643;47.746;9.000;2023-05-18T00:36:40;10.80;99.90
3262;DHT22;1643;47.746;9.000;2023-05-18T00:39:07;10.80;99.70
3262;DHT22;1643;47.746;9.000;2023-05-18T00:41:36;11.00;99.70
3262;DHT22;1643;47.746;9.000;2023-05-18T00:44:02;11.00;99.60
3262;DHT22;1643;47.746;9.000;2023-05-18T00:46:29;11.10;99.60
3262;DHT22;1643;47.746;9.000;2023-05-18T00:48:55;11.10;99.60
3262;DHT22;1643;47.746;9.000;2023-05-18T00:51:22;11.10;99.60
3262;DHT22;1643;47.746;9.000;2023-05-18T00:53:53;11.00;99.60
3262;DHT22;1643;47.746;9.000;2023-05-18T00:56:20;10.90;99.60
3262;DHT22;1643;47.746;9.000;2023-05-18T00:58:49;10.90;99.60
3262;DHT22;1643;47.746;9.000;2023-05-18T01:01:17;10.90;99.60
3262;DHT22;1643;47.746;9.000;2023-05-18T01:03:43;10.90;99.60
3262;DHT22;1643;47.746;9.000;2023-05-18T01:06:09;10.80;99.70
3262;DHT22;1643;47.746;9.000;2023-05-18T01:08:37;10.80;99.70
3262;DHT22;1643;47.746;9.000;2023-05-18T01:17:22;10.70;99.80
3262;DHT22;1643;47.746;9.000;2023-05-18T01:27:59;10.70;99.70
3262;DHT22;1643;47.746;9.000;2023-05-18T01:30:34;10.70;99.80
3262;DHT22;1643;47.746;9.000;2023-05-18T01:33:09;10.70;99.80
3262;DHT22;1643;47.746;9.000;2023-05-18T01:35:36;10.70;99.80
3262;DHT22;1643;47.746;9.000;2023-05-18T01:38:02;10.60;99.90
3262;DHT22;1643;47.746;9.000;2023-05-18T01:40:34;10.50;99.90
3262;DHT22;1643;47.746;9.000;2023-05-18T01:43:09;10.60;99.90
3262;DHT22;1643;47.746;9.000;2023-05-18T01:45:38;10.60;99.90
3262;DHT22;1643;47.746;9.000;2023-05-18T01:48:06;10.50;99.90
3262;DHT22;1643;47.746;9.000;2023-05-18T01:50:35;10.60;99.90
3262;DHT22;1643;47.746;9.000;2023-05-18T01:53:22;10.50;99.90
3262;DHT22;1643;47.746;9.000;2023-05-18T01:55:49;10.60;99.90
3262;DHT22;1643;47.746;9.000;2023-05-18T01:58:17;10.60;99.90
3262;DHT22;1643;47.746;9.000;2023-05-18T02:00:45;10.60;99.90
3262;DHT22;1643;47.746;9.000;2023-05-18T02:03:12;10.70;99.90
3262;DHT22;1643;47.746;9.000;2023-05-18T02:05:38;10.60;99.90
3262;DHT22;1643;47.746;9.000;2023-05-18T02:08:04;10.60;99.90
3262;DHT22;1643;47.746;9.000;2023-05-18T02:10:29;10.60;99.90
3262;DHT22;1643;47.746;9.000;2023-05-18T02:12:55;10.60;99.90
3262;DHT22;1643;47.746;9.000;2023-05-18T02:15:21;10.50;99.90
3262;DHT22;1643;47.746;9.000;2023-05-18T02:17:46;10.50;99.90
3262;DHT22;1643;47.746;9.000;2023-05-18T02:20:12;10.50;99.90
3262;DHT22;1643;47.746;9.000;2023-05-18T02:22:38;10.40;99.90
3262;DHT22;1643;47.746;9.000;2023-05-18T02:25:04;10.40;99.90
3262;DHT22;1643;47.746;9.000;2023-05-18T02:27:30;10.40;99.90
3262;DHT22;1643;47.746;9.000;2023-05-18T02:29:56;10.40;99.90
3262;DHT22;1643;47.746;9.000;2023-05-18T02:32:22;10.40;99.90
3262;DHT22;1643;47.746;9.000;2023-05-18T02:34:51;10.50;99.90
3262;DHT22;1643;47.746;9.000;2023-05-18T02:37:17;10.40;99.90
3262;DHT22;1643;47.746;9.000;2023-05-18T02:39:43;10.30;99.90
3262;DHT22;1643;47.746;9.000;2023-05-18T02:42:08;10.30;99.90
3262;DHT22;1643;47.746;9.000;2023-05-18T02:44:34;10.20;99.90
3262;DHT22;1643;47.746;9.000;2023-05-18T02:47:00;10.20;99.90
3262;DHT22;1643;47.746;9.000;2023-05-18T02:49:26;10.20;99.90
3262;DHT22;1643;47.746;9.000;2023-05-18T02:51:51;10.20;99.90
3262;DHT22;1643;47.746;9.000;2023-05-18T02:54:17;10.10;99.90
3262;DHT22;1643;47.746;9.000;2023-05-18T02:56:42;10.10;99.90
3262;DHT22;1643;47.746;9.000;2023-05-18T02:59:08;10.10;99.90
3262;DHT22;1643;47.746;9.000;2023-05-18T03:01:34;10.10;99.90
3262;DHT22;1643;47.746;9.000;2023-05-18T03:04:02;10.20;99.90
3262;DHT22;1643;47.746;9.000;2023-05-18T03:06:28;10.20;99.90
3262;DHT22;1643;47.746;9.000;2023-05-18T03:08:55;10.20;99.90
3262;DHT22;1643;47.746;9.000;2023-05-18T03:11:23;10.20;99.90
3262;DHT22;1643;47.746;9.000;2023-05-18T03:13:50;10.20;99.90
3262;DHT22;1643;47.746;9.000;2023-05-18T03:16:16;10.20;99.90
3262;DHT22;1643;47.746;9.000;2023-05-18T03:18:41;10.10;99.90
3262;DHT22;1643;47.746;9.000;2023-05-18T03:21:07;10.10;99.90
3262;DHT22;1643;47.746;9.000;2023-05-18T03:23:33;10.10;99.90
3262;DHT22;1643;47.746;9.000;2023-05-18T03:25:59;10.00;99.90
3262;DHT22;1643;47.746;9.000;2023-05-18T03:28:29;9.90;99.90
3262;DHT22;1643;47.746;9.000;2023-05-18T03:30:55;9.90;99.90
3262;DHT22;1643;47.746;9.000;2023-05-18T03:33:21;9.80;99.90
3262;DHT22;1643;47.746;9.000;2023-05-18T03:35:47;9.90;99.90
3262;DHT22;1643;47.746;9.000;2023-05-18T03:38:13;9.90;99.90
3262;DHT22;1643;47.746;9.000;2023-05-18T03:40:39;9.90;99.90
3262;DHT22;1643;47.746;9.000;2023-05-18T03:43:05;9.90;99.90
3262;DHT22;1643;47.746;9.000;2023-05-18T03:45:30;9.90;99.90
3262;DHT22;1643;47.746;9.000;2023-05-18T03:47:56;9.90;99.90
3262;DHT22;1643;47.746;9.000;2023-05-18T03:50:21;9.90;99.90
3262;DHT22;1643;47.746;9.000;2023-05-18T03:52:47;9.90;99.90
3262;DHT22;1643;47.746;9.000;2023-05-18T03:55:13;9.90;99.90
3262;DHT22;1643;47.746;9.000;2023-05-18T03:57:38;9.90;99.90
3262;DHT22;1643;47.746;9.000;2023-05-18T04:00:05;10.00;99.90
3262;DHT22;1643;47.746;9.000;2023-05-18T04:02:38;10.00;99.90
3262;DHT22;1643;47.746;9.000;2023-05-18T04:05:04;10.00;99.90
3262;DHT22;1643;47.746;9.000;2023-05-18T04:07:30;10.10;99.90
3262;DHT22;1643;47.746;9.000;2023-05-18T04:09:56;10.10;99.90
3262;DHT22;1643;47.746;9.000;2023-05-18T04:12:22;10.10;99.90
3262;DHT22;1643;47.746;9.000;2023-05-18T04:14:47;10.10;99.90
3262;DHT22;1643;47.746;9.000;2023-05-18T04:17:17;10.10;99.90
3262;DHT22;1643;47.746;9.000;2023-05-18T04:19:46;10.10;99.90
3262;DHT22;1643;47.746;9.000;2023-05-18T04:22:12;10.20;99.90
3262;DHT22;1643;47.746;9.000;2023-05-18T04:24:38;10.20;99.90
3262;DHT22;1643;47.746;9.000;2023-05-18T04:27:06;10.20;99.90
3262;DHT22;1643;47.746;9.000;2023-05-18T04:29:33;10.20;99.90
3262;DHT22;1643;47.746;9.000;2023-05-18T04:31:58;10.20;99.90
3262;DHT22;1643;47.746;9.000;2023-05-18T04:34:29;10.10;99.90
3262;DHT22;1643;47.746;9.000;2023-05-18T04:36:56;10.20;99.90
3262;DHT22;1643;47.746;9.000;2023-05-18T04:39:25;10.20;99.90
3262;DHT22;1643;47.746;9.000;2023-05-18T04:41:51;10.20;99.90
3262;DHT22;1643;47.746;9.000;2023-05-18T04:44:26;10.30;99.90
3262;DHT22;1643;47.746;9.000;2023-05-18T04:46:53;10.20;99.90
3262;DHT22;1643;47.746;9.000;2023-05-18T04:49:19;10.20;99.90
3262;DHT22;1643;47.746;9.000;2023-05-18T04:51:52;10.30;99.90
3262;DHT22;1643;47.746;9.000;2023-05-18T04:54:22;10.40;99.90
3262;DHT22;1643;47.746;9.000;2023-05-18T04:56:49;10.30;99.90
3262;DHT22;1643;47.746;9.000;2023-05-18T04:59:15;10.40;99.90
3262;DHT22;1643;47.746;9.000;2023-05-18T05:01:41;10.40;99.90
3262;DHT22;1643;47.746;9.000;2023-05-18T05:04:06;10.40;99.90
3262;DHT22;1643;47.746;9.000;2023-05-18T05:06:32;10.50;99.90
3262;DHT22;1643;47.746;9.000;2023-05-18T05:08:58;10.50;99.90
3262;DHT22;1643;47.746;9.000;2023-05-18T05:11:23;10.60;99.90
3262;DHT22;1643;47.746;9.000;2023-05-18T05:13:49;10.50;99.90
3262;DHT22;1643;47.746;9.000;2023-05-18T05:16:14;10.50;99.90
3262;DHT22;1643;47.746;9.000;2023-05-18T05:18:40;10.60;99.90
3262;DHT22;1643;47.746;9.000;2023-05-18T05:21:06;10.60;99.90
3262;DHT22;1643;47.746;9.000;2023-05-18T05:23:31;10.70;99.90
3262;DHT22;1643;47.746;9.000;2023-05-18T05:25:57;10.70;99.90
3262;DHT22;1643;47.746;9.000;2023-05-18T05:28:22;10.70;99.90
3262;DHT22;1643;47.746;9.000;2023-05-18T05:30:48;10.70;99.90
3262;DHT22;1643;47.746;9.000;2023-05-18T05:33:14;10.80;99.90
3262;DHT22;1643;47.746;9.000;2023-05-18T05:35:39;10.90;99.90
3262;DHT22;1643;47.746;9.000;2023-05-18T05:38:05;10.80;99.90
3262;DHT22;1643;47.746;9.000;2023-05-18T05:40:31;10.90;99.90
3262;DHT22;1643;47.746;9.000;2023-05-18T05:43:00;11.00;99.90
3262;DHT22;1643;47.746;9.000;2023-05-18T05:45:25;11.00;99.90
3262;DHT22;1643;47.746;9.000;2023-05-18T05:47:53;11.10;99.90
3262;DHT22;1643;47.746;9.000;2023-05-18T05:50:18;11.10;99.90
3262;DHT22;1643;47.746;9.000;2023-05-18T05:52:44;11.10;99.90
3262;DHT22;1643;47.746;9.000;2023-05-18T05:55:10;11.00;99.90
3262;DHT22;1643;47.746;9.000;2023-05-18T05:57:35;11.00;99.90
3262;DHT22;1643;47.746;9.000;2023-05-18T06:00:01;11.10;99.90
3262;DHT22;1643;47.746;9.000;2023-05-18T06:02:28;11.30;99.90
3262;DHT22;1643;47.746;9.000;2023-05-18T06:04:54;11.30;99.90
3262;DHT22;1643;47.746;9.000;2023-05-18T06:07:20;11.40;99.90
3262;DHT22;1643;47.746;9.000;2023-05-18T06:09:45;11.40;99.90
3262;DHT22;1643;47.746;9.000;2023-05-18T06:12:11;11.40;99.90
3262;DHT22;1643;47.746;9.000;2023-05-18T06:14:36;11.50;99.90
3262;DHT22;1643;47.746;9.000;2023-05-18T06:17:02;11.50;99.90
3262;DHT22;1643;47.746;9.000;2023-05-18T06:19:28;11.60;99.90
3262;DHT22;1643;47.746;9.000;2023-05-18T06:21:53;11.70;99.90
3262;DHT22;1643;47.746;9.000;2023-05-18T06:24:19;11.70;99.90
3262;DHT22;1643;47.746;9.000;2023-05-18T06:26:45;11.80;99.90
3262;DHT22;1643;47.746;9.000;2023-05-18T06:29:10;11.90;99.90
3262;DHT22;1643;47.746;9.000;2023-05-18T06:31:36;11.90;99.90
3262;DHT22;1643;47.746;9.000;2023-05-18T06:34:01;12.00;99.90
3262;DHT22;1643;47.746;9.000;2023-05-18T06:36:27;12.00;99.90
3262;DHT22;1643;47.746;9.000;2023-05-18T06:38:53;12.10;99.90
3262;DHT22;1643;47.746;9.000;2023-05-18T06:41:18;12.20;99.90
3262;DHT22;1643;47.746;9.000;2023-05-18T06:43:44;12.10;99.90
3262;DHT22;1643;47.746;9.000;2023-05-18T06:46:21;12.20;99.90
3262;DHT22;1643;47.746;9.000;2023-05-18T06:48:47;12.20;99.90
3262;DHT22;1643;47.746;9.000;2023-05-18T06:51:12;12.30;99.90
3262;DHT22;1643;47.746;9.000;2023-05-18T06:53:40;12.30;99.90
3262;DHT22;1643;47.746;9.000;2023-05-18T06:56:06;12.30;99.90
3262;DHT22;1643;47.746;9.000;2023-05-18T06:58:32;12.30;99.90
3262;DHT22;1643;47.746;9.000;2023-05-18T07:00:57;12.40;99.90
3262;DHT22;1643;47.746;9.000;2023-05-18T07:03:23;12.50;99.90
3262;DHT22;1643;47.746;9.000;2023-05-18T07:05:49;12.60;99.90
3262;DHT22;1643;47.746;9.000;2023-05-18T07:08:14;12.60;99.90
3262;DHT22;1643;47.746;9.000;2023-05-18T07:10:40;12.70;99.90
3262;DHT22;1643;47.746;9.000;2023-05-18T07:13:05;12.80;99.90
3262;DHT22;1643;47.746;9.000;2023-05-18T07:15:31;12.80;99.90
3262;DHT22;1643;47.746;9.000;2023-05-18T07:17:57;12.80;99.90
3262;DHT22;1643;47.746;9.000;2023-05-18T07:20:23;12.90;99.90
3262;DHT22;1643;47.746;9.000;2023-05-18T07:22:48;13.10;99.90
3262;DHT22;1643;47.746;9.000;2023-05-18T07:25:15;13.10;99.90
3262;DHT22;1643;47.746;9.000;2023-05-18T07:27:40;13.10;99.90
3262;DHT22;1643;47.746;9.000;2023-05-18T07:30:07;13.20;99.90
3262;DHT22;1643;47.746;9.000;2023-05-18T07:32:33;13.10;99.90
3262;DHT22;1643;47.746;9.000;2023-05-18T07:34:59;13.20;99.90
3262;DHT22;1643;47.746;9.000;2023-05-18T07:37:25;13.20;99.90
3262;DHT22;1643;47.746;9.000;2023-05-18T07:39:50;13.30;99.90
3262;DHT22;1643;47.746;9.000;2023-05-18T07:42:16;13.20;99.90
3262;DHT22;1643;47.746;9.000;2023-05-18T07:44:42;13.20;99.90
3262;DHT22;1643;47.746;9.000;2023-05-18T07:47:08;13.30;99.90
3262;DHT22;1643;47.746;9.000;2023-05-18T07:49:33;13.40;99.90
3262;DHT22;1643;47.746;9.000;2023-05-18T07:51:59;13.40;99.90
3262;DHT22;1643;47.746;9.000;2023-05-18T07:54:26;13.50;99.90
3262;DHT22;1643;47.746;9.000;2023-05-18T07:56:52;13.60;99.90
3262;DHT22;1643;47.746;9.000;2023-05-18T07:59:17;13.70;99.90
3262;DHT22;1643;47.746;9.000;2023-05-18T08:01:43;13.80;99.90
3262;DHT22;1643;47.746;9.000;2023-05-18T08:04:10;13.80;99.90
3262;DHT22;1643;47.746;9.000;2023-05-18T08:06:35;13.90;99.90
3262;DHT22;1643;47.746;9.000;2023-05-18T08:09:01;14.00;99.90
3262;DHT22;1643;47.746;9.000;2023-05-18T08:11:26;14.10;99.90
3262;DHT22;1643;47.746;9.000;2023-05-18T08:13:52;14.10;99.90
3262;DHT22;1643;47.746;9.000;2023-05-18T08:16:18;14.20;99.90
3262;DHT22;1643;47.746;9.000;2023-05-18T08:18:43;14.20;99.90
3262;DHT22;1643;47.746;9.000;2023-05-18T08:21:10;14.20;99.90
3262;DHT22;1643;47.746;9.000;2023-05-18T08:23:36;14.30;99.90
3262;DHT22;1643;47.746;9.000;2023-05-18T08:26:02;14.40;99.90
3262;DHT22;1643;47.746;9.000;2023-05-18T08:28:29;14.50;99.90
3262;DHT22;1643;47.746;9.000;2023-05-18T08:30:54;14.60;99.90
3262;DHT22;1643;47.746;9.000;2023-05-18T08:33:20;14.70;99.90
3262;DHT22;1643;47.746;9.000;2023-05-18T08:35:48;14.80;99.90
3262;DHT22;1643;47.746;9.000;2023-05-18T08:38:14;14.80;99.90
3262;DHT22;1643;47.746;9.000;2023-05-18T08:41:01;14.90;99.90
3262;DHT22;1643;47.746;9.000;2023-05-18T08:43:28;15.00;99.90
3262;DHT22;1643;47.746;9.000;2023-05-18T08:46:21;15.00;99.90
3262;DHT22;1643;47.746;9.000;2023-05-18T08:48:51;15.00;99.90
3262;DHT22;1643;47.746;9.000;2023-05-18T08:51:19;15.00;99.40
3262;DHT22;1643;47.746;9.000;2023-05-18T08:53:53;14.90;99.30
3262;DHT22;1643;47.746;9.000;2023-05-18T08:56:23;15.00;99.40
3262;DHT22;1643;47.746;9.000;2023-05-18T08:58:50;15.00;99.30
3262;DHT22;1643;47.746;9.000;2023-05-18T09:01:16;15.10;99.30
3262;DHT22;1643;47.746;9.000;2023-05-18T09:03:43;15.20;98.70
3262;DHT22;1643;47.746;9.000;2023-05-18T09:06:11;15.20;98.50
3262;DHT22;1643;47.746;9.000;2023-05-18T09:08:37;15.20;98.30
3262;DHT22;1643;47.746;9.000;2023-05-18T09:11:03;15.20;98.10
3262;DHT22;1643;47.746;9.000;2023-05-18T09:13:29;15.30;98.20
3262;DHT22;1643;47.746;9.000;2023-05-18T09:15:55;15.30;98.00
3262;DHT22;1643;47.746;9.000;2023-05-18T09:18:21;15.40;98.20
3262;DHT22;1643;47.746;9.000;2023-05-18T09:20:46;15.40;98.00
3262;DHT22;1643;47.746;9.000;2023-05-18T09:23:13;15.40;97.80
3262;DHT22;1643;47.746;9.000;2023-05-18T09:25:43;15.30;97.90
3262;DHT22;1643;47.746;9.000;2023-05-18T09:28:12;15.40;98.10
3262;DHT22;1643;47.746;9.000;2023-05-18T09:30:42;15.50;98.20
3262;DHT22;1643;47.746;9.000;2023-05-18T09:33:17;15.50;97.80
3262;DHT22;1643;47.746;9.000;2023-05-18T09:35:46;15.50;97.70
3262;DHT22;1643;47.746;9.000;2023-05-18T09:38:16;15.50;97.70
3262;DHT22;1643;47.746;9.000;2023-05-18T09:40:47;15.50;97.70
3262;DHT22;1643;47.746;9.000;2023-05-18T09:43:15;15.60;97.80
3262;DHT22;1643;47.746;9.000;2023-05-18T09:45:42;15.70;97.90
3262;DHT22;1643;47.746;9.000;2023-05-18T09:48:09;15.80;97.80
3262;DHT22;1643;47.746;9.000;2023-05-18T09:50:35;15.80;97.70
3262;DHT22;1643;47.746;9.000;2023-05-18T09:53:08;15.80;97.70
3262;DHT22;1643;47.746;9.000;2023-05-18T09:55:44;15.90;97.50
3262;DHT22;1643;47.746;9.000;2023-05-18T09:58:10;15.90;97.30
3262;DHT22;1643;47.746;9.000;2023-05-18T10:00:37;15.90;97.20
3262;DHT22;1643;47.746;9.000;2023-05-18T10:03:22;15.80;97.30
3262;DHT22;1643;47.746;9.000;2023-05-18T10:05:48;15.90;97.40
3262;DHT22;1643;47.746;9.000;2023-05-18T10:08:14;16.00;97.50
3262;DHT22;1643;47.746;9.000;2023-05-18T10:10:44;16.10;97.50
3262;DHT22;1643;47.746;9.000;2023-05-18T10:13:15;16.20;97.40
3262;DHT22;1643;47.746;9.000;2023-05-18T10:15:51;16.20;97.30
3262;DHT22;1643;47.746;9.000;2023-05-18T10:18:22;16.20;97.20
3262;DHT22;1643;47.746;9.000;2023-05-18T10:20:50;16.40;97.50
3262;DHT22;1643;47.746;9.000;2023-05-18T10:23:17;16.50;97.20
3262;DHT22;1643;47.746;9.000;2023-05-18T10:25:45;16.40;97.10
3262;DHT22;1643;47.746;9.000;2023-05-18T10:28:19;16.40;97.30
3262;DHT22;1643;47.746;9.000;2023-05-18T10:30:51;16.40;97.00
3262;DHT22;1643;47.746;9.000;2023-05-18T10:33:18;16.30;96.80
3262;DHT22;1643;47.746;9.000;2023-05-18T10:35:46;16.30;97.10
3262;DHT22;1643;47.746;9.000;2023-05-18T10:38:17;16.40;97.50
3262;DHT22;1643;47.746;9.000;2023-05-18T10:40:44;16.40;97.50
3262;DHT22;1643;47.746;9.000;2023-05-18T10:43:11;16.40;97.40
3262;DHT22;1643;47.746;9.000;2023-05-18T10:45:38;16.30;97.30
3262;DHT22;1643;47.746;9.000;2023-05-18T10:48:07;16.20;97.20
3262;DHT22;1643;47.746;9.000;2023-05-18T10:50:34;16.10;97.30
3262;DHT22;1643;47.746;9.000;2023-05-18T10:53:04;16.10;97.00
3262;DHT22;1643;47.746;9.000;2023-05-18T10:55:31;16.20;96.90
3262;DHT22;1643;47.746;9.000;2023-05-18T10:58:06;16.20;96.80
3262;DHT22;1643;47.746;9.000;2023-05-18T11:00:34;16.30;96.70
3262;DHT22;1643;47.746;9.000;2023-05-18T11:03:01;16.30;96.40
3262;DHT22;1643;47.746;9.000;2023-05-18T11:05:27;16.10;96.30
3262;DHT22;1643;47.746;9.000;2023-05-18T11:08:02;16.00;96.50
3262;DHT22;1643;47.746;9.000;2023-05-18T11:10:43;16.00;96.70
3262;DHT22;1643;47.746;9.000;2023-05-18T11:13:12;16.20;96.80
3262;DHT22;1643;47.746;9.000;2023-05-18T11:24:18;16.50;97.10
3262;DHT22;1643;47.746;9.000;2023-05-18T11:26:46;16.60;97.00
3262;DHT22;1643;47.746;9.000;2023-05-18T11:29:34;16.50;96.90
3262;DHT22;1643;47.746;9.000;2023-05-18T11:32:00;16.40;96.90
3262;DHT22;1643;47.746;9.000;2023-05-18T11:37:04;16.50;97.20
3262;DHT22;1643;47.746;9.000;2023-05-18T11:39:31;16.60;97.00
3262;DHT22;1643;47.746;9.000;2023-05-18T11:42:16;16.50;97.00
3262;DHT22;1643;47.746;9.000;2023-05-18T11:44:50;16.60;97.20
3262;DHT22;1643;47.746;9.000;2023-05-18T11:47:17;16.60;97.40
3262;DHT22;1643;47.746;9.000;2023-05-18T11:49:45;16.60;97.10
3262;DHT22;1643;47.746;9.000;2023-05-18T11:54:55;16.50;97.30
3262;DHT22;1643;47.746;9.000;2023-05-18T11:57:40;16.40;97.30
3262;DHT22;1643;47.746;9.000;2023-05-18T12:00:07;16.20;97.20
3262;DHT22;1643;47.746;9.000;2023-05-18T12:02:37;16.10;97.20
3262;DHT22;1643;47.746;9.000;2023-05-18T12:05:07;16.10;97.30
3262;DHT22;1643;47.746;9.000;2023-05-18T12:07:34;16.00;97.50
3262;DHT22;1643;47.746;9.000;2023-05-18T12:10:11;16.10;97.50
3262;DHT22;1643;47.746;9.000;2023-05-18T12:12:39;16.10;97.50
3262;DHT22;1643;47.746;9.000;2023-05-18T12:15:07;16.10;97.50
3262;DHT22;1643;47.746;9.000;2023-05-18T12:20:24;16.00;97.20
3262;DHT22;1643;47.746;9.000;2023-05-18T12:22:52;16.00;97.40
3262;DHT22;1643;47.746;9.000;2023-05-18T12:25:19;16.10;97.30
3262;DHT22;1643;47.746;9.000;2023-05-18T12:27:46;16.10;97.50
3262;DHT22;1643;47.746;9.000;2023-05-18T12:32:55;16.10;97.30
3262;DHT22;1643;47.746;9.000;2023-05-18T12:35:25;16.10;97.10
3262;DHT22;1643;47.746;9.000;2023-05-18T12:37:52;16.00;97.20
3262;DHT22;1643;47.746;9.000;2023-05-18T12:40:20;15.90;97.40
3262;DHT22;1643;47.746;9.000;2023-05-18T12:43:06;15.80;97.40
3262;DHT22;1643;47.746;9.000;2023-05-18T12:45:32;15.80;97.50
3262;DHT22;1643;47.746;9.000;2023-05-18T12:50:30;15.80;97.60
3262;DHT22;1643;47.746;9.000;2023-05-18T12:52:56;15.80;97.60
3262;DHT22;1643;47.746;9.000;2023-05-18T12:55:23;15.80;97.60
3262;DHT22;1643;47.746;9.000;2023-05-18T13:00:30;15.70;97.40
3262;DHT22;1643;47.746;9.000;2023-05-18T13:03:04;15.70;97.30
3262;DHT22;1643;47.746;9.000;2023-05-18T13:05:30;15.60;97.40
3262;DHT22;1643;47.746;9.000;2023-05-18T13:07:56;15.60;97.30
3262;DHT22;1643;47.746;9.000;2023-05-18T13:10:21;15.60;97.50
3262;DHT22;1643;47.746;9.000;2023-05-18T13:12:49;15.60;97.50
3262;DHT22;1643;47.746;9.000;2023-05-18T13:15:22;15.60;97.40
3262;DHT22;1643;47.746;9.000;2023-05-18T13:17:56;15.60;97.50
3262;DHT22;1643;47.746;9.000;2023-05-18T13:20:49;15.60;97.50
3262;DHT22;1643;47.746;9.000;2023-05-18T13:23:20;15.60;97.60
3262;DHT22;1643;47.746;9.000;2023-05-18T13:25:47;15.60;97.60
3262;DHT22;1643;47.746;9.000;2023-05-18T13:28:14;15.50;97.60
3262;DHT22;1643;47.746;9.000;2023-05-18T13:30:41;15.50;97.80
3262;DHT22;1643;47.746;9.000;2023-05-18T13:33:07;15.50;97.70
3262;DHT22;1643;47.746;9.000;2023-05-18T13:35:38;15.50;97.70
3262;DHT22;1643;47.746;9.000;2023-05-18T13:38:07;15.50;97.80
3262;DHT22;1643;47.746;9.000;2023-05-18T13:40:32;15.40;97.80
3262;DHT22;1643;47.746;9.000;2023-05-18T13:42:58;15.40;97.80
3262;DHT22;1643;47.746;9.000;2023-05-18T13:45:23;15.40;97.80
3262;DHT22;1643;47.746;9.000;2023-05-18T13:47:49;15.40;97.80
3262;DHT22;1643;47.746;9.000;2023-05-18T13:50:16;15.40;97.80
3262;DHT22;1643;47.746;9.000;2023-05-18T13:52:42;15.40;97.80
3262;DHT22;1643;47.746;9.000;2023-05-18T13:55:08;15.50;97.80
3262;DHT22;1643;47.746;9.000;2023-05-18T13:57:34;15.50;98.00
3262;DHT22;1643;47.746;9.000;2023-05-18T14:00:00;15.50;98.00
3262;DHT22;1643;47.746;9.000;2023-05-18T14:02:40;15.50;98.00
3262;DHT22;1643;47.746;9.000;2023-05-18T14:05:07;15.50;98.00
3262;DHT22;1643;47.746;9.000;2023-05-18T14:07:34;15.50;98.10
3262;DHT22;1643;47.746;9.000;2023-05-18T14:10:00;15.50;98.10
3262;DHT22;1643;47.746;9.000;2023-05-18T14:12:27;15.50;98.10
3262;DHT22;1643;47.746;9.000;2023-05-18T14:14:52;15.60;98.10
3262;DHT22;1643;47.746;9.000;2023-05-18T14:17:18;15.60;98.00
3262;DHT22;1643;47.746;9.000;2023-05-18T14:19:43;15.60;97.90
3262;DHT22;1643;47.746;9.000;2023-05-18T14:22:09;15.60;97.80
3262;DHT22;1643;47.746;9.000;2023-05-18T14:24:35;15.60;97.80
3262;DHT22;1643;47.746;9.000;2023-05-18T14:27:00;15.60;97.80
3262;DHT22;1643;47.746;9.000;2023-05-18T14:29:26;15.50;97.60
3262;DHT22;1643;47.746;9.000;2023-05-18T14:31:51;15.50;97.80
3262;DHT22;1643;47.746;9.000;2023-05-18T14:34:17;15.50;97.90
3262;DHT22;1643;47.746;9.000;2023-05-18T14:36:43;15.50;97.90
3262;DHT22;1643;47.746;9.000;2023-05-18T14:39:08;15.60;97.90
3262;DHT22;1643;47.746;9.000;2023-05-18T14:41:34;15.60;98.00
3262;DHT22;1643;47.746;9.000;2023-05-18T14:44:00;15.60;98.00
3262;DHT22;1643;47.746;9.000;2023-05-18T14:46:28;15.60;98.00
3262;DHT22;1643;47.746;9.000;2023-05-18T14:48:54;15.60;97.90
3262;DHT22;1643;47.746;9.000;2023-05-18T14:51:20;15.60;97.90
3262;DHT22;1643;47.746;9.000;2023-05-18T14:53:46;15.60;97.80
3262;DHT22;1643;47.746;9.000;2023-05-18T14:56:11;15.70;97.90
3262;DHT22;1643;47.746;9.000;2023-05-18T14:58:37;15.80;98.00
3262;DHT22;1643;47.746;9.000;2023-05-18T15:01:03;15.70;97.90
3262;DHT22;1643;47.746;9.000;2023-05-18T15:03:28;15.70;97.90
3262;DHT22;1643;47.746;9.000;2023-05-18T15:05:54;15.70;98.00
3262;DHT22;1643;47.746;9.000;2023-05-18T15:08:20;15.60;98.30
3262;DHT22;1643;47.746;9.000;2023-05-18T15:10:45;15.60;97.90
3262;DHT22;1643;47.746;9.000;2023-05-18T15:13:11;15.60;98.00
3262;DHT22;1643;47.746;9.000;2023-05-18T15:15:37;15.60;98.10
3262;DHT22;1643;47.746;9.000;2023-05-18T15:18:04;15.50;98.00
3262;DHT22;1643;47.746;9.000;2023-05-18T15:20:29;15.50;98.00
3262;DHT22;1643;47.746;9.000;2023-05-18T15:22:55;15.50;98.00
3262;DHT22;1643;47.746;9.000;2023-05-18T15:25:21;15.50;98.00
3262;DHT22;1643;47.746;9.000;2023-05-18T15:27:46;15.50;98.00
3262;DHT22;1643;47.746;9.000;2023-05-18T15:30:13;15.40;98.00
3262;DHT22;1643;47.746;9.000;2023-05-18T15:32:40;15.40;98.00
3262;DHT22;1643;47.746;9.000;2023-05-18T15:35:07;15.30;98.00
3262;DHT22;1643;47.746;9.000;2023-05-18T15:37:33;15.40;98.10
3262;DHT22;1643;47.746;9.000;2023-05-18T15:39:58;15.40;98.10
3262;DHT22;1643;47.746;9.000;2023-05-18T15:42:24;15.40;98.20
3262;DHT22;1643;47.746;9.000;2023-05-18T15:44:50;15.40;98.20
3262;DHT22;1643;47.746;9.000;2023-05-18T15:47:16;15.50;98.20
3262;DHT22;1643;47.746;9.000;2023-05-18T15:49:42;15.50;98.20
3262;DHT22;1643;47.746;9.000;2023-05-18T15:52:08;15.50;98.40
3262;DHT22;1643;47.746;9.000;2023-05-18T15:54:34;15.40;98.20
3262;DHT22;1643;47.746;9.000;2023-05-18T15:57:00;15.30;98.20
3262;DHT22;1643;47.746;9.000;2023-05-18T15:59:26;15.30;98.20
3262;DHT22;1643;47.746;9.000;2023-05-18T16:01:51;15.30;98.20
3262;DHT22;1643;47.746;9.000;2023-05-18T16:04:17;15.30;98.20
3262;DHT22;1643;47.746;9.000;2023-05-18T16:06:43;15.20;98.10
3262;DHT22;1643;47.746;9.000;2023-05-18T16:09:08;15.20;98.10
3262;DHT22;1643;47.746;9.000;2023-05-18T16:11:34;15.20;98.20
3262;DHT22;1643;47.746;9.000;2023-05-18T16:14:00;15.20;98.20
3262;DHT22;1643;47.746;9.000;2023-05-18T16:16:26;15.20;98.20
3262;DHT22;1643;47.746;9.000;2023-05-18T16:18:52;15.10;98.30
3262;DHT22;1643;47.746;9.000;2023-05-18T16:21:18;15.10;98.20
3262;DHT22;1643;47.746;9.000;2023-05-18T16:23:44;15.00;98.10
3262;DHT22;1643;47.746;9.000;2023-05-18T16:26:11;15.00;98.20
3262;DHT22;1643;47.746;9.000;2023-05-18T16:28:37;15.00;98.30
3262;DHT22;1643;47.746;9.000;2023-05-18T16:31:03;15.00;98.30
3262;DHT22;1643;47.746;9.000;2023-05-18T16:33:32;14.90;98.20
3262;DHT22;1643;47.746;9.000;2023-05-18T16:35:58;14.90;98.40
3262;DHT22;1643;47.746;9.000;2023-05-18T16:38:24;14.80;98.40
3262;DHT22;1643;47.746;9.000;2023-05-18T16:40:50;14.80;98.50